createdAt,value
2022-11-07T00:00:56.804Z,62.52
2022-11-07T00:03:29.500Z,62.44
2022-11-07T00:06:00.126Z,62.52
2022-11-07T00:08:33.063Z,62.62
2022-11-07T00:11:06.557Z,62.46
2022-11-07T00:13:38.947Z,62.55
2022-11-07T00:16:12.730Z,62.61
2022-11-07T00:18:45.299Z,62.62
2022-11-07T00:21:17.834Z,62.53
2022-11-07T00:23:50.207Z,62.57
2022-11-07T00:26:22.673Z,62.59
2022-11-07T00:28:55.157Z,62.55
2022-11-07T00:31:25.941Z,62.65
2022-11-07T00:33:58.540Z,62.67
2022-11-07T00:36:31.925Z,62.57
2022-11-07T00:39:04.812Z,62.62
2022-11-07T00:41:37.580Z,62.59
2022-11-07T00:44:10.217Z,62.58
2022-11-07T00:46:40.920Z,62.63
2022-11-07T00:49:13.424Z,62.66
2022-11-07T00:51:45.777Z,62.56
2022-11-07T00:54:18.138Z,62.69
2022-11-07T00:56:50.615Z,62.50
2022-11-07T00:59:23.135Z,62.51
2022-11-07T01:01:55.741Z,62.50
2022-11-07T01:04:45.873Z,62.55
2022-11-07T01:07:18.464Z,62.52
2022-11-07T01:09:49.227Z,62.55
2022-11-07T01:12:21.696Z,62.52
2022-11-07T01:14:52.385Z,62.34
2022-11-07T01:17:24.702Z,62.52
2022-11-07T01:19:57.172Z,62.57
2022-11-07T01:22:29.494Z,62.52
2022-11-07T01:25:02.015Z,62.48
2022-11-07T01:27:32.746Z,62.46
2022-11-07T01:30:05.606Z,62.47
2022-11-07T01:32:38.155Z,62.49
2022-11-07T01:35:09.489Z,62.46
2022-11-07T01:37:41.950Z,62.48
2022-11-07T01:40:15.636Z,62.44
2022-11-07T01:42:47.913Z,62.38
2022-11-07T01:45:24.097Z,62.16
2022-11-07T01:47:57.602Z,62.32
2022-11-07T01:50:29.985Z,62.46
2022-11-07T01:53:00.728Z,62.40
2022-11-07T01:55:35.399Z,62.32
2022-11-07T01:58:10.083Z,62.41
2022-11-07T02:00:42.388Z,62.27
2022-11-07T02:03:17.525Z,62.29
2022-11-07T02:05:53.299Z,62.33
2022-11-07T02:08:25.805Z,62.15
2022-11-07T02:10:56.666Z,62.28
2022-11-07T02:13:32.279Z,62.16
2022-11-07T02:16:05.367Z,62.11
2022-11-07T02:18:38.657Z,62.16
2022-11-07T02:21:16.328Z,62.13
2022-11-07T02:23:53.062Z,62.16
2022-11-07T02:26:25.779Z,62.06
2022-11-07T02:28:58.513Z,62.09
2022-11-07T02:31:30.774Z,62.09
2022-11-07T02:34:03.198Z,62.07
2022-11-07T02:36:36.242Z,62.07
2022-11-07T02:39:08.668Z,62.06
2022-11-07T02:41:41.197Z,62.06
2022-11-07T02:44:14.431Z,62.07
2022-11-07T02:46:46.869Z,61.92
2022-11-07T02:49:19.194Z,61.95
2022-11-07T02:51:51.566Z,62.00
2022-11-07T02:54:23.945Z,61.99
2022-11-07T02:56:56.284Z,61.90
2022-11-07T02:59:28.686Z,61.86
2022-11-07T03:02:01.033Z,61.89
2022-11-07T03:04:33.917Z,61.92
2022-11-07T03:07:04.587Z,61.89
2022-11-07T03:09:36.967Z,61.86
2022-11-07T03:12:09.590Z,61.80
2022-11-07T03:14:42.363Z,61.71
2022-11-07T03:17:14.815Z,61.63
2022-11-07T03:19:47.903Z,61.66
2022-11-07T03:22:20.637Z,61.67
2022-11-07T03:24:53.131Z,61.55
2022-11-07T03:27:25.619Z,61.54
2022-11-07T03:29:57.886Z,61.37
2022-11-07T03:32:30.939Z,61.39
2022-11-07T03:35:03.340Z,61.54
2022-11-07T03:37:35.791Z,61.47
2022-11-07T03:40:09.931Z,61.32
2022-11-07T03:42:43.155Z,61.34
2022-11-07T03:45:16.983Z,61.31
2022-11-07T03:47:50.960Z,61.31
2022-11-07T03:50:24.883Z,61.32
2022-11-07T03:52:58.677Z,61.28
2022-11-07T03:55:31.167Z,61.28
2022-11-07T03:58:03.638Z,61.15
2022-11-07T04:00:36.165Z,61.10
2022-11-07T04:03:07.321Z,61.06
2022-11-07T04:05:39.553Z,61.19
2022-11-07T04:08:11.791Z,61.22
2022-11-07T04:10:44.927Z,61.34
2022-11-07T04:13:31.239Z,61.10
2022-11-07T04:16:20.856Z,61.09
2022-11-07T04:18:53.952Z,61.14
2022-11-07T04:21:26.930Z,61.11
2022-11-07T04:23:57.571Z,61.05
2022-11-07T04:26:48.158Z,61.11
2022-11-07T04:29:20.735Z,61.01
2022-11-07T04:31:53.984Z,60.95
2022-11-07T04:34:26.459Z,61.08
2022-11-07T04:37:00.529Z,60.91
2022-11-07T04:39:34.065Z,61.16
2022-11-07T04:42:07.638Z,60.94
2022-11-07T04:44:40.185Z,61.05
2022-11-07T04:47:11.441Z,61.09
2022-11-07T04:49:43.755Z,61.06
2022-11-07T04:52:16.535Z,61.03
2022-11-07T04:54:49.745Z,61.22
2022-11-07T04:57:22.112Z,61.01
2022-11-07T04:59:58.282Z,61.04
2022-11-07T05:02:30.967Z,60.96
2022-11-07T05:05:06.038Z,60.89
2022-11-07T05:07:39.893Z,60.90
2022-11-07T05:10:20.653Z,60.89
2022-11-07T05:12:54.412Z,60.88
2022-11-07T05:15:27.716Z,60.97
2022-11-07T05:18:02.280Z,60.98
2022-11-07T05:20:38.180Z,60.96
2022-11-07T05:23:19.954Z,61.10
2022-11-07T05:25:54.556Z,61.02
2022-11-07T05:28:36.935Z,61.04
2022-11-07T05:31:13.678Z,61.10
2022-11-07T05:33:50.451Z,61.12
2022-11-07T05:36:26.665Z,61.13
2022-11-07T05:38:59.961Z,61.07
2022-11-07T05:41:33.663Z,61.15
2022-11-07T05:44:09.778Z,61.12
2022-11-07T05:46:43.720Z,61.26
2022-11-07T05:49:17.340Z,61.28
2022-11-07T05:51:51.679Z,61.18
2022-11-07T05:54:28.332Z,61.14
2022-11-07T05:57:01.619Z,61.08
2022-11-07T05:59:35.123Z,61.06
2022-11-07T06:02:09.008Z,61.15
2022-11-07T06:13:34.172Z,61.12
2022-11-07T06:16:03.209Z,61.03
2022-11-07T06:18:41.333Z,61.12
2022-11-07T06:21:11.145Z,61.13
2022-11-07T06:23:40.181Z,61.18
2022-11-07T06:26:10.476Z,61.12
2022-11-07T06:28:39.958Z,61.24
2022-11-07T06:31:10.044Z,61.27
2022-11-07T06:33:39.295Z,61.21
2022-11-07T06:36:11.343Z,61.19
2022-11-07T06:38:41.316Z,61.07
2022-11-07T06:41:12.080Z,61.09
2022-11-07T06:43:41.533Z,61.17
2022-11-07T06:46:12.371Z,61.21
2022-11-07T06:48:41.299Z,61.05
2022-11-07T06:51:11.261Z,61.07
2022-11-07T06:53:40.325Z,61.07
2022-11-07T06:56:15.375Z,61.10
2022-11-07T06:58:46.302Z,61.14
2022-11-07T07:01:17.251Z,60.99
2022-11-07T07:03:46.287Z,61.01
2022-11-07T07:06:17.158Z,61.08
2022-11-07T07:08:46.397Z,60.97
2022-11-07T07:11:16.354Z,60.93
2022-11-07T07:13:45.323Z,60.82
2022-11-07T07:16:14.251Z,60.88
2022-11-07T07:18:43.151Z,60.78
2022-11-07T07:21:13.611Z,60.83
2022-11-07T07:23:42.462Z,60.85
2022-11-07T07:26:13.500Z,60.93
2022-11-07T07:28:42.633Z,60.74
2022-11-07T07:31:20.869Z,60.84
2022-11-07T07:33:49.982Z,60.83
2022-11-07T07:36:21.166Z,60.77
2022-11-07T07:38:50.453Z,60.63
2022-11-07T07:41:19.794Z,60.47
2022-11-07T07:43:48.722Z,60.52
2022-11-07T07:46:21.648Z,60.74
2022-11-07T07:48:50.427Z,60.65
2022-11-07T07:51:19.292Z,60.47
2022-11-07T07:53:48.105Z,60.49
2022-11-07T07:56:17.073Z,60.23
2022-11-07T07:58:46.004Z,60.24
2022-11-07T08:01:14.892Z,60.17
2022-11-07T08:04:01.794Z,60.21
2022-11-07T08:06:33.638Z,60.31
2022-11-07T08:09:02.784Z,60.26
2022-11-07T08:11:31.691Z,60.17
2022-11-07T08:14:01.735Z,60.02
2022-11-07T08:16:30.766Z,60.02
2022-11-07T08:18:59.628Z,59.97
2022-11-07T08:21:28.454Z,59.88
2022-11-07T08:23:57.274Z,59.74
2022-11-07T08:26:26.190Z,59.74
2022-11-07T08:28:55.159Z,59.67
2022-11-07T08:31:24.248Z,59.50
2022-11-07T08:33:53.283Z,59.52
2022-11-07T08:36:22.267Z,59.52
2022-11-07T08:38:51.132Z,59.47
2022-11-07T08:41:22.333Z,59.55
2022-11-07T08:43:51.304Z,59.55
2022-11-07T08:46:20.064Z,59.50
2022-11-07T08:48:48.896Z,59.55
2022-11-07T08:51:17.751Z,59.49
2022-11-07T08:53:46.580Z,59.32
2022-11-07T08:56:15.443Z,59.13
2022-11-07T08:58:44.500Z,59.18
2022-11-07T09:01:13.434Z,59.06
2022-11-07T09:03:50.301Z,59.03
2022-11-07T09:06:22.298Z,58.93
2022-11-07T09:08:51.287Z,58.93
2022-11-07T09:11:21.381Z,58.91
2022-11-07T09:13:50.372Z,59.03
2022-11-07T09:16:19.572Z,58.73
2022-11-07T09:18:49.529Z,58.74
2022-11-07T09:21:22.494Z,58.58
2022-11-07T09:23:51.999Z,58.64
2022-11-07T09:26:20.844Z,58.71
2022-11-07T09:28:52.891Z,58.38
2022-11-07T09:31:23.987Z,58.41
2022-11-07T09:33:52.660Z,58.30
2022-11-07T09:36:23.548Z,58.23
2022-11-07T09:38:55.479Z,58.11
2022-11-07T09:41:31.546Z,58.04
2022-11-07T09:44:10.365Z,57.94
2022-11-07T09:46:53.497Z,58.00
2022-11-07T09:49:25.581Z,57.82
2022-11-07T09:51:58.651Z,57.79
2022-11-07T09:54:29.561Z,57.74
2022-11-07T09:56:59.547Z,57.81
2022-11-07T09:59:32.032Z,57.93
2022-11-07T10:01:59.832Z,57.46
2022-11-07T10:04:28.688Z,57.62
2022-11-07T10:07:02.190Z,57.14
2022-11-07T10:09:37.767Z,56.71
2022-11-07T10:12:14.978Z,56.89
2022-11-07T10:14:51.714Z,56.36
2022-11-07T10:17:24.292Z,56.00
2022-11-07T10:20:07.220Z,55.67
2022-11-07T10:22:45.344Z,55.80
2022-11-07T10:25:27.592Z,55.61
2022-11-07T10:28:05.379Z,55.24
2022-11-07T10:30:34.844Z,55.18
2022-11-07T10:33:06.840Z,54.84
2022-11-07T10:35:39.125Z,54.82
2022-11-07T10:38:15.962Z,54.87
2022-11-07T10:40:46.876Z,54.80
2022-11-07T10:43:19.740Z,54.71
2022-11-07T10:45:48.792Z,54.50
2022-11-07T10:48:17.935Z,54.19
2022-11-07T10:50:52.873Z,53.96
2022-11-07T10:53:23.183Z,53.97
2022-11-07T10:55:53.357Z,54.08
2022-11-07T10:58:23.969Z,54.05
2022-11-07T11:01:01.036Z,53.79
2022-11-07T11:03:43.900Z,53.57
2022-11-07T11:06:23.816Z,53.42
2022-11-07T11:08:53.541Z,53.27
2022-11-07T11:11:31.665Z,53.37
2022-11-07T11:14:05.705Z,53.11
2022-11-07T11:16:38.047Z,52.73
2022-11-07T11:19:16.435Z,52.56
2022-11-07T11:21:47.286Z,52.59
2022-11-07T11:24:25.391Z,52.88
2022-11-07T11:26:56.234Z,52.81
2022-11-07T11:29:36.667Z,52.42
2022-11-07T11:32:15.848Z,52.31
2022-11-07T11:34:53.110Z,52.10
2022-11-07T11:37:23.255Z,51.91
2022-11-07T11:40:06.496Z,51.56
2022-11-07T11:42:45.747Z,51.47
2022-11-07T11:45:18.412Z,51.54
2022-11-07T11:47:54.503Z,51.38
2022-11-07T11:50:29.868Z,51.05
2022-11-07T11:52:59.273Z,51.03
2022-11-07T11:55:33.905Z,50.88
2022-11-07T11:58:10.988Z,50.89
2022-11-07T12:00:46.738Z,51.02
2022-11-07T12:03:38.554Z,50.55
2022-11-07T12:06:12.607Z,50.12
2022-11-07T12:09:05.826Z,50.14
2022-11-07T12:11:38.854Z,50.07
2022-11-07T12:14:25.432Z,50.12
2022-11-07T12:16:57.914Z,50.15
2022-11-07T12:19:30.827Z,50.10
2022-11-07T12:22:06.614Z,49.61
2022-11-07T12:24:44.333Z,49.44
2022-11-07T12:27:24.129Z,49.39
2022-11-07T12:30:02.119Z,49.42
2022-11-07T12:32:38.224Z,49.27
2022-11-07T12:35:21.576Z,49.17
2022-11-07T12:38:02.894Z,48.96
2022-11-07T12:40:43.178Z,48.95
2022-11-07T12:43:23.388Z,48.73
2022-11-07T12:45:57.422Z,48.75
2022-11-07T12:48:59.161Z,48.77
2022-11-07T12:51:39.763Z,48.59
2022-11-07T12:54:32.416Z,48.51
2022-11-07T12:57:01.441Z,48.47
2022-11-07T12:59:32.652Z,48.32
2022-11-07T13:02:05.520Z,48.20
2022-11-07T13:04:42.595Z,47.92
2022-11-07T13:07:22.642Z,48.02
2022-11-07T13:09:57.308Z,47.99
2022-11-07T13:12:34.775Z,47.78
2022-11-07T13:15:06.431Z,47.59
2022-11-07T13:17:41.502Z,47.58
2022-11-07T13:20:29.623Z,47.43
2022-11-07T13:23:01.830Z,47.30
2022-11-07T13:25:35.092Z,47.20
2022-11-07T13:28:25.819Z,47.09
2022-11-07T13:31:02.297Z,46.99
2022-11-07T13:33:37.817Z,47.07
2022-11-07T13:36:15.864Z,46.71
2022-11-07T13:38:51.529Z,46.51
2022-11-07T13:41:21.927Z,46.49
2022-11-07T13:43:57.357Z,46.55
2022-11-07T13:46:31.875Z,46.32
2022-11-07T13:49:05.201Z,46.60
2022-11-07T13:51:38.180Z,46.52
2022-11-07T13:54:14.661Z,46.66
2022-11-07T13:56:46.810Z,46.51
2022-11-07T13:59:26.600Z,46.29
2022-11-07T14:01:58.268Z,46.26
2022-11-07T14:04:32.047Z,46.31
2022-11-07T14:13:43.134Z,46.29
2022-11-07T14:16:22.901Z,46.40
2022-11-07T14:19:01.860Z,46.10
2022-11-07T14:21:36.027Z,46.11
2022-11-07T14:24:23.988Z,46.16
2022-11-07T14:27:05.214Z,46.30
2022-11-07T14:29:39.155Z,46.23
2022-11-07T14:32:19.788Z,46.07
2022-11-07T14:35:05.076Z,46.07
2022-11-07T14:37:44.869Z,46.09
2022-11-07T14:40:19.738Z,46.03
2022-11-07T14:42:54.135Z,46.04
2022-11-07T14:46:06.078Z,46.07
2022-11-07T14:48:22.021Z,46.10
2022-11-07T14:50:54.244Z,46.11
2022-11-07T14:53:28.214Z,46.08
2022-11-07T14:56:04.380Z,45.91
2022-11-07T14:58:36.608Z,45.86
2022-11-07T15:01:14.380Z,45.93
2022-11-07T15:03:56.463Z,46.06
2022-11-07T15:06:35.828Z,45.94
2022-11-07T15:09:09.431Z,45.92
2022-11-07T15:11:43.186Z,45.97
2022-11-07T15:14:26.045Z,46.03
2022-11-07T15:17:00.801Z,45.99
2022-11-07T15:19:50.668Z,45.94
2022-11-07T15:22:33.363Z,45.81
2022-11-07T15:25:23.688Z,45.80
2022-11-07T15:30:04.845Z,45.92
2022-11-07T15:32:45.303Z,45.90
2022-11-07T15:38:42.149Z,46.08
2022-11-07T15:41:25.778Z,46.00
2022-11-07T15:48:05.867Z,45.97
2022-11-07T15:48:08.013Z,46.05
2022-11-07T15:50:44.758Z,46.02
2022-11-07T15:53:22.795Z,46.09
2022-11-07T15:55:56.790Z,46.06
2022-11-07T15:58:30.795Z,46.08
2022-11-07T16:01:03.635Z,46.10
2022-11-07T16:03:36.350Z,46.12
2022-11-07T16:06:18.147Z,46.18
2022-11-07T16:08:50.462Z,46.23
2022-11-07T16:11:22.927Z,46.22
2022-11-07T16:14:14.755Z,46.22
2022-11-07T16:16:47.363Z,46.25
2022-11-07T16:19:21.609Z,46.32
2022-11-07T16:21:53.890Z,46.32
2022-11-07T16:24:26.014Z,46.40
2022-11-07T16:26:58.566Z,46.38
2022-11-07T16:29:31.003Z,46.38
2022-11-07T16:32:03.319Z,46.44
2022-11-07T16:34:35.901Z,46.47
2022-11-07T16:37:14.676Z,46.49
2022-11-07T16:39:47.292Z,46.48
2022-11-07T16:42:21.144Z,46.53
2022-11-07T16:44:56.111Z,46.56
2022-11-07T16:50:15.943Z,46.60
2022-11-07T16:52:55.899Z,46.68
2022-11-07T16:55:28.985Z,46.71
2022-11-07T16:58:01.570Z,46.75
2022-11-07T17:00:35.342Z,46.76
2022-11-07T17:03:10.753Z,46.71
2022-11-07T17:05:44.830Z,46.81
2022-11-07T17:08:23.797Z,46.86
2022-11-07T17:10:56.133Z,46.91
2022-11-07T17:13:31.131Z,46.91
2022-11-07T17:16:05.924Z,46.95
2022-11-07T17:18:49.484Z,47.05
2022-11-07T17:21:39.634Z,47.05
2022-11-07T17:24:21.456Z,47.17
2022-11-07T17:26:54.471Z,47.13
2022-11-07T17:29:41.356Z,47.17
2022-11-07T17:32:24.002Z,47.19
2022-11-07T17:41:18.279Z,47.28
2022-11-07T17:43:56.103Z,47.37
2022-11-07T17:46:30.253Z,47.37
2022-11-07T17:49:09.582Z,47.47
2022-11-07T17:51:48.500Z,47.54
2022-11-07T17:54:36.420Z,47.52
2022-11-07T17:57:14.200Z,47.53
2022-11-07T17:59:53.928Z,47.72
2022-11-07T18:02:47.943Z,47.77
2022-11-07T18:05:34.269Z,47.81
2022-11-07T18:08:38.548Z,47.77
2022-11-07T18:14:43.786Z,48.05
2022-11-07T18:17:22.436Z,48.17
2022-11-07T18:19:57.769Z,48.18
2022-11-07T18:22:35.109Z,48.30
2022-11-07T18:25:12.167Z,48.36
2022-11-07T18:27:50.430Z,48.46
2022-11-07T18:30:22.961Z,48.50
2022-11-07T18:34:04.342Z,48.55
2022-11-07T18:39:42.480Z,48.45
2022-11-07T18:42:40.921Z,48.57
2022-11-07T18:45:29.686Z,48.61
2022-11-07T18:48:16.124Z,48.72
2022-11-07T18:50:48.679Z,48.65
2022-11-07T18:53:26.534Z,48.79
2022-11-07T18:56:05.643Z,48.74
2022-11-07T18:58:49.070Z,48.85
2022-11-07T19:01:26.639Z,48.85
2022-11-07T19:07:18.227Z,48.84
2022-11-07T19:09:50.602Z,48.89
2022-11-07T19:12:23.180Z,49.01
2022-11-07T19:14:55.620Z,49.07
2022-11-07T19:17:28.066Z,49.09
2022-11-07T19:19:58.685Z,49.20
2022-11-07T19:22:32.879Z,49.29
2022-11-07T19:25:09.970Z,49.25
2022-11-07T19:27:47.268Z,49.30
2022-11-07T19:30:19.993Z,49.45
2022-11-07T19:32:58.078Z,49.36
2022-11-07T19:35:32.948Z,49.43
2022-11-07T19:38:09.042Z,49.46
2022-11-07T19:40:46.086Z,49.41
2022-11-07T19:43:32.335Z,49.45
2022-11-07T19:46:21.885Z,49.40
2022-11-07T19:52:52.978Z,49.52
2022-11-07T19:55:45.978Z,49.58
2022-11-07T19:58:18.294Z,49.58
2022-11-07T20:00:50.854Z,49.61
2022-11-07T20:03:21.903Z,49.73
2022-11-07T20:05:59.545Z,49.84
2022-11-07T20:08:32.082Z,49.86
2022-11-07T20:11:04.705Z,50.00
2022-11-07T20:13:47.143Z,50.03
2022-11-07T20:16:22.613Z,49.95
2022-11-07T20:19:07.999Z,50.02
2022-11-07T20:21:44.908Z,50.14
2022-11-07T20:24:17.437Z,50.20
2022-11-07T20:26:50.677Z,50.15
2022-11-07T20:29:23.219Z,50.24
2022-11-07T20:31:56.624Z,50.22
2022-11-07T20:34:30.178Z,50.30
2022-11-07T20:37:19.422Z,50.44
2022-11-07T20:39:53.017Z,50.55
2022-11-07T20:42:26.490Z,50.58
2022-11-07T20:45:15.227Z,50.56
2022-11-07T20:47:50.691Z,50.58
2022-11-07T20:50:23.060Z,50.66
2022-11-07T20:52:57.515Z,50.62
2022-11-07T20:55:41.163Z,50.75
2022-11-07T20:58:17.693Z,50.76
2022-11-07T21:00:50.036Z,50.72
2022-11-07T21:03:22.357Z,50.73
2022-11-07T21:05:56.497Z,50.83
2022-11-07T21:08:33.136Z,50.77
2022-11-07T21:11:11.566Z,50.84
2022-11-07T21:13:52.369Z,50.86
2022-11-07T21:16:25.984Z,50.93
2022-11-07T21:18:58.388Z,50.93
2022-11-07T21:21:32.735Z,50.98
2022-11-07T21:24:05.064Z,50.97
2022-11-07T21:26:40.425Z,51.05
2022-11-07T21:29:12.818Z,51.13
2022-11-07T21:31:45.085Z,51.11
2022-11-07T21:34:17.460Z,51.21
2022-11-07T21:36:49.681Z,51.27
2022-11-07T21:39:21.941Z,51.26
2022-11-07T21:41:54.265Z,51.43
2022-11-07T21:44:26.512Z,51.44
2022-11-07T21:46:58.841Z,51.45
2022-11-07T21:49:31.320Z,51.55
2022-11-07T21:52:03.795Z,51.60
2022-11-07T21:54:36.052Z,51.62
2022-11-07T21:57:08.283Z,51.66
2022-11-07T21:59:40.605Z,51.83
2022-11-07T22:02:14.494Z,51.84
2022-11-07T22:04:46.795Z,51.84
2022-11-07T22:07:19.191Z,52.06
2022-11-07T22:09:51.396Z,52.09
2022-11-07T22:12:23.598Z,52.08
2022-11-07T22:14:55.810Z,52.09
2022-11-07T22:17:28.303Z,52.25
2022-11-07T22:19:58.920Z,52.25
2022-11-07T22:22:31.220Z,52.30
2022-11-07T22:25:03.486Z,52.25
2022-11-07T22:27:37.411Z,52.24
2022-11-07T22:30:11.446Z,52.32
2022-11-07T22:32:45.022Z,52.35
2022-11-07T22:35:17.428Z,52.34
2022-11-07T22:37:49.608Z,52.34
2022-11-07T22:40:21.978Z,52.44
2022-11-07T22:42:52.855Z,52.46
2022-11-07T22:45:25.185Z,52.56
2022-11-07T22:47:57.461Z,52.60
2022-11-07T22:50:29.662Z,52.59
2022-11-07T22:53:02.131Z,52.53
2022-11-07T22:55:37.540Z,52.61
2022-11-07T22:58:11.771Z,52.46
2022-11-07T23:00:45.594Z,52.60
2022-11-07T23:03:19.866Z,52.71
2022-11-07T23:05:52.440Z,52.94
2022-11-07T23:08:22.932Z,52.84
2022-11-07T23:11:43.464Z,53.02
2022-11-07T23:14:00.664Z,52.95
2022-11-07T23:16:35.014Z,52.96
2022-11-07T23:19:10.024Z,53.01
2022-11-07T23:21:42.735Z,53.06
2022-11-07T23:24:15.540Z,53.08
2022-11-07T23:26:47.808Z,53.09
2022-11-07T23:29:22.876Z,53.09
2022-11-07T23:31:55.533Z,53.14
2022-11-07T23:34:26.506Z,53.11
2022-11-07T23:36:58.838Z,53.19
2022-11-07T23:39:31.048Z,53.10
2022-11-07T23:42:03.213Z,53.27
2022-11-07T23:44:55.411Z,53.28
2022-11-07T23:47:45.472Z,53.29
2022-11-07T23:50:35.100Z,53.33
2022-11-07T23:53:28.726Z,53.54
2022-11-07T23:56:00.881Z,53.63
2022-11-07T23:58:50.460Z,53.58
